sensor_id;sensor_type;location;lat;lon;timestamp;P1;durP1;ratioP1;P2;durP2;ratioP2
20623;SDS011;10471;42.736;23.346;2023-04-15T00:01:01;15.23;;;8.40;;
20623;SDS011;10471;42.736;23.346;2023-04-15T00:03:26;16.30;;;7.90;;
20623;SDS011;10471;42.736;23.346;2023-04-15T00:05:53;25.97;;;13.40;;
20623;SDS011;10471;42.736;23.346;2023-04-15T00:08:18;19.67;;;9.57;;
20623;SDS011;10471;42.736;23.346;2023-04-15T00:10:44;19.90;;;10.80;;
20623;SDS011;10471;42.736;23.346;2023-04-15T00:13:10;23.97;;;12.60;;
20623;SDS011;10471;42.736;23.346;2023-04-15T00:15:36;15.17;;;8.40;;
20623;SDS011;10471;42.736;23.346;2023-04-15T00:18:02;16.23;;;9.43;;
20623;SDS011;10471;42.736;23.346;2023-04-15T00:20:28;17.70;;;10.87;;
20623;SDS011;10471;42.736;23.346;2023-04-15T00:22:54;18.40;;;11.17;;
20623;SDS011;10471;42.736;23.346;2023-04-15T00:25:19;21.73;;;12.40;;
20623;SDS011;10471;42.736;23.346;2023-04-15T00:27:44;22.53;;;12.87;;
20623;SDS011;10471;42.736;23.346;2023-04-15T00:30:10;21.07;;;11.47;;
20623;SDS011;10471;42.736;23.346;2023-04-15T00:32:35;17.57;;;10.67;;
20623;SDS011;10471;42.736;23.346;2023-04-15T00:35:01;16.07;;;9.80;;
20623;SDS011;10471;42.736;23.346;2023-04-15T00:37:27;19.70;;;11.23;;
20623;SDS011;10471;42.736;23.346;2023-04-15T00:39:52;17.80;;;9.50;;
20623;SDS011;10471;42.736;23.346;2023-04-15T00:42:17;15.90;;;9.33;;
20623;SDS011;10471;42.736;23.346;2023-04-15T00:44:45;16.70;;;10.00;;
20623;SDS011;10471;42.736;23.346;2023-04-15T00:47:11;14.83;;;9.23;;
20623;SDS011;10471;42.736;23.346;2023-04-15T00:49:36;16.33;;;9.83;;
20623;SDS011;10471;42.736;23.346;2023-04-15T00:52:02;17.23;;;11.27;;
20623;SDS011;10471;42.736;23.346;2023-04-15T00:54:28;18.40;;;11.10;;
20623;SDS011;10471;42.736;23.346;2023-04-15T00:56:53;16.63;;;10.73;;
20623;SDS011;10471;42.736;23.346;2023-04-15T00:59:19;18.40;;;10.87;;
20623;SDS011;10471;42.736;23.346;2023-04-15T01:01:45;18.33;;;10.53;;
20623;SDS011;10471;42.736;23.346;2023-04-15T01:04:11;15.77;;;10.73;;
20623;SDS011;10471;42.736;23.346;2023-04-15T01:06:37;19.07;;;11.47;;
20623;SDS011;10471;42.736;23.346;2023-04-15T01:09:02;21.17;;;12.23;;
20623;SDS011;10471;42.736;23.346;2023-04-15T01:11:28;22.77;;;11.73;;
20623;SDS011;10471;42.736;23.346;2023-04-15T01:13:55;20.30;;;12.47;;
20623;SDS011;10471;42.736;23.346;2023-04-15T01:16:22;21.87;;;11.30;;
20623;SDS011;10471;42.736;23.346;2023-04-15T01:18:48;16.60;;;10.63;;
20623;SDS011;10471;42.736;23.346;2023-04-15T01:21:13;15.57;;;10.10;;
20623;SDS011;10471;42.736;23.346;2023-04-15T01:23:38;16.73;;;9.80;;
20623;SDS011;10471;42.736;23.346;2023-04-15T01:26:04;14.80;;;8.40;;
20623;SDS011;10471;42.736;23.346;2023-04-15T01:28:31;14.57;;;8.87;;
20623;SDS011;10471;42.736;23.346;2023-04-15T01:31:13;14.93;;;9.10;;
20623;SDS011;10471;42.736;23.346;2023-04-15T01:33:40;13.63;;;8.97;;
20623;SDS011;10471;42.736;23.346;2023-04-15T01:36:07;15.83;;;9.70;;
20623;SDS011;10471;42.736;23.346;2023-04-15T01:38:34;17.30;;;10.83;;
20623;SDS011;10471;42.736;23.346;2023-04-15T01:40:59;20.60;;;11.83;;
20623;SDS011;10471;42.736;23.346;2023-04-15T01:43:25;19.57;;;11.70;;
20623;SDS011;10471;42.736;23.346;2023-04-15T01:45:51;19.50;;;11.50;;
20623;SDS011;10471;42.736;23.346;2023-04-15T01:48:16;18.00;;;10.50;;
20623;SDS011;10471;42.736;23.346;2023-04-15T01:50:43;18.67;;;10.80;;
20623;SDS011;10471;42.736;23.346;2023-04-15T01:53:09;15.27;;;9.90;;
20623;SDS011;10471;42.736;23.346;2023-04-15T01:55:35;14.17;;;9.37;;
20623;SDS011;10471;42.736;23.346;2023-04-15T01:58:01;15.23;;;9.80;;
20623;SDS011;10471;42.736;23.346;2023-04-15T02:00:26;14.00;;;9.90;;
20623;SDS011;10471;42.736;23.346;2023-04-15T02:02:52;14.77;;;10.50;;
20623;SDS011;10471;42.736;23.346;2023-04-15T02:05:17;16.63;;;11.03;;
20623;SDS011;10471;42.736;23.346;2023-04-15T02:07:43;17.43;;;9.40;;
20623;SDS011;10471;42.736;23.346;2023-04-15T02:10:09;15.83;;;9.70;;
20623;SDS011;10471;42.736;23.346;2023-04-15T02:12:37;14.07;;;9.13;;
20623;SDS011;10471;42.736;23.346;2023-04-15T02:15:02;13.63;;;8.33;;
20623;SDS011;10471;42.736;23.346;2023-04-15T02:17:28;14.67;;;9.20;;
20623;SDS011;10471;42.736;23.346;2023-04-15T02:19:54;47.10;;;26.40;;
20623;SDS011;10471;42.736;23.346;2023-04-15T02:22:20;19.17;;;10.23;;
20623;SDS011;10471;42.736;23.346;2023-04-15T02:24:46;38.30;;;20.83;;
20623;SDS011;10471;42.736;23.346;2023-04-15T02:27:15;29.23;;;15.87;;
20623;SDS011;10471;42.736;23.346;2023-04-15T02:29:42;36.10;;;18.50;;
20623;SDS011;10471;42.736;23.346;2023-04-15T02:32:08;23.53;;;11.73;;
20623;SDS011;10471;42.736;23.346;2023-04-15T02:34:33;25.07;;;11.07;;
20623;SDS011;10471;42.736;23.346;2023-04-15T02:36:59;36.50;;;14.30;;
20623;SDS011;10471;42.736;23.346;2023-04-15T02:39:24;26.57;;;12.33;;
20623;SDS011;10471;42.736;23.346;2023-04-15T02:41:49;19.23;;;9.70;;
20623;SDS011;10471;42.736;23.346;2023-04-15T02:44:17;36.10;;;14.70;;
20623;SDS011;10471;42.736;23.346;2023-04-15T02:46:47;17.40;;;9.90;;
20623;SDS011;10471;42.736;23.346;2023-04-15T02:49:16;13.50;;;9.17;;
20623;SDS011;10471;42.736;23.346;2023-04-15T02:51:41;11.73;;;8.27;;
20623;SDS011;10471;42.736;23.346;2023-04-15T02:54:07;11.53;;;7.87;;
20623;SDS011;10471;42.736;23.346;2023-04-15T02:56:32;14.27;;;8.07;;
20623;SDS011;10471;42.736;23.346;2023-04-15T02:58:58;15.17;;;9.83;;
20623;SDS011;10471;42.736;23.346;2023-04-15T03:01:24;14.60;;;9.40;;
20623;SDS011;10471;42.736;23.346;2023-04-15T03:03:50;13.60;;;9.60;;
20623;SDS011;10471;42.736;23.346;2023-04-15T03:06:15;14.67;;;8.90;;
20623;SDS011;10471;42.736;23.346;2023-04-15T03:08:41;12.13;;;6.90;;
20623;SDS011;10471;42.736;23.346;2023-04-15T03:11:06;12.03;;;6.57;;
20623;SDS011;10471;42.736;23.346;2023-04-15T03:13:32;10.00;;;6.53;;
20623;SDS011;10471;42.736;23.346;2023-04-15T03:15:57;12.10;;;6.30;;
20623;SDS011;10471;42.736;23.346;2023-04-15T03:18:23;9.13;;;6.07;;
20623;SDS011;10471;42.736;23.346;2023-04-15T03:20:48;10.57;;;6.27;;
20623;SDS011;10471;42.736;23.346;2023-04-15T03:23:14;9.87;;;6.33;;
20623;SDS011;10471;42.736;23.346;2023-04-15T03:25:39;11.07;;;6.57;;
20623;SDS011;10471;42.736;23.346;2023-04-15T03:28:05;8.47;;;6.23;;
20623;SDS011;10471;42.736;23.346;2023-04-15T03:30:30;30.67;;;12.50;;
20623;SDS011;10471;42.736;23.346;2023-04-15T03:32:55;507.83;;;90.30;;
20623;SDS011;10471;42.736;23.346;2023-04-15T03:35:21;57.83;;;19.47;;
20623;SDS011;10471;42.736;23.346;2023-04-15T03:37:46;18.20;;;11.57;;
20623;SDS011;10471;42.736;23.346;2023-04-15T03:40:13;14.47;;;10.17;;
20623;SDS011;10471;42.736;23.346;2023-04-15T03:42:38;14.87;;;9.00;;
20623;SDS011;10471;42.736;23.346;2023-04-15T03:45:04;12.70;;;9.00;;
20623;SDS011;10471;42.736;23.346;2023-04-15T03:47:31;15.97;;;10.50;;
20623;SDS011;10471;42.736;23.346;2023-04-15T03:49:57;17.33;;;13.07;;
20623;SDS011;10471;42.736;23.346;2023-04-15T03:52:22;25.73;;;12.97;;
20623;SDS011;10471;42.736;23.346;2023-04-15T03:54:47;18.93;;;11.60;;
20623;SDS011;10471;42.736;23.346;2023-04-15T03:57:13;16.57;;;10.90;;
20623;SDS011;10471;42.736;23.346;2023-04-15T03:59:38;15.80;;;8.63;;
20623;SDS011;10471;42.736;23.346;2023-04-15T04:02:03;11.63;;;7.73;;
20623;SDS011;10471;42.736;23.346;2023-04-15T04:04:29;14.93;;;7.47;;
20623;SDS011;10471;42.736;23.346;2023-04-15T04:06:54;17.43;;;8.07;;
20623;SDS011;10471;42.736;23.346;2023-04-15T04:09:19;12.57;;;7.83;;
20623;SDS011;10471;42.736;23.346;2023-04-15T04:11:45;23.10;;;18.50;;
20623;SDS011;10471;42.736;23.346;2023-04-15T04:14:11;25.37;;;18.37;;
20623;SDS011;10471;42.736;23.346;2023-04-15T04:16:36;38.90;;;23.77;;
20623;SDS011;10471;42.736;23.346;2023-04-15T04:19:01;49.97;;;28.87;;
20623;SDS011;10471;42.736;23.346;2023-04-15T04:21:27;64.37;;;37.73;;
20623;SDS011;10471;42.736;23.346;2023-04-15T04:23:52;25.30;;;15.93;;
20623;SDS011;10471;42.736;23.346;2023-04-15T04:26:17;25.07;;;18.13;;
20623;SDS011;10471;42.736;23.346;2023-04-15T04:28:43;18.70;;;12.83;;
20623;SDS011;10471;42.736;23.346;2023-04-15T04:31:09;19.27;;;12.93;;
20623;SDS011;10471;42.736;23.346;2023-04-15T04:33:34;22.47;;;13.67;;
20623;SDS011;10471;42.736;23.346;2023-04-15T04:36:00;20.83;;;11.67;;
20623;SDS011;10471;42.736;23.346;2023-04-15T04:38:25;19.67;;;10.90;;
20623;SDS011;10471;42.736;23.346;2023-04-15T04:40:51;14.27;;;9.30;;
20623;SDS011;10471;42.736;23.346;2023-04-15T04:43:16;14.70;;;9.50;;
20623;SDS011;10471;42.736;23.346;2023-04-15T04:45:42;15.80;;;9.77;;
20623;SDS011;10471;42.736;23.346;2023-04-15T04:48:07;16.67;;;9.87;;
20623;SDS011;10471;42.736;23.346;2023-04-15T04:50:34;15.70;;;10.73;;
20623;SDS011;10471;42.736;23.346;2023-04-15T04:53:00;18.37;;;10.70;;
20623;SDS011;10471;42.736;23.346;2023-04-15T04:55:26;18.37;;;11.63;;
20623;SDS011;10471;42.736;23.346;2023-04-15T04:57:51;16.80;;;10.93;;
20623;SDS011;10471;42.736;23.346;2023-04-15T05:00:17;20.47;;;10.93;;
20623;SDS011;10471;42.736;23.346;2023-04-15T05:02:43;20.63;;;11.83;;
20623;SDS011;10471;42.736;23.346;2023-04-15T05:05:09;19.30;;;12.10;;
20623;SDS011;10471;42.736;23.346;2023-04-15T05:07:35;18.53;;;11.30;;
20623;SDS011;10471;42.736;23.346;2023-04-15T05:10:02;20.27;;;12.23;;
20623;SDS011;10471;42.736;23.346;2023-04-15T05:12:27;24.93;;;14.93;;
20623;SDS011;10471;42.736;23.346;2023-04-15T05:14:53;22.07;;;13.37;;
20623;SDS011;10471;42.736;23.346;2023-04-15T05:17:18;20.00;;;13.03;;
20623;SDS011;10471;42.736;23.346;2023-04-15T05:19:43;17.87;;;11.47;;
20623;SDS011;10471;42.736;23.346;2023-04-15T05:22:09;20.17;;;12.10;;
20623;SDS011;10471;42.736;23.346;2023-04-15T05:24:34;19.40;;;12.33;;
20623;SDS011;10471;42.736;23.346;2023-04-15T05:27:00;16.27;;;10.87;;
20623;SDS011;10471;42.736;23.346;2023-04-15T05:29:26;16.90;;;11.13;;
20623;SDS011;10471;42.736;23.346;2023-04-15T05:31:51;22.03;;;11.77;;
20623;SDS011;10471;42.736;23.346;2023-04-15T05:34:16;18.53;;;11.80;;
20623;SDS011;10471;42.736;23.346;2023-04-15T05:36:42;18.73;;;11.40;;
20623;SDS011;10471;42.736;23.346;2023-04-15T05:39:07;18.20;;;12.43;;
20623;SDS011;10471;42.736;23.346;2023-04-15T05:41:33;23.80;;;13.40;;
20623;SDS011;10471;42.736;23.346;2023-04-15T05:43:58;26.27;;;15.57;;
20623;SDS011;10471;42.736;23.346;2023-04-15T05:46:24;17.97;;;12.40;;
20623;SDS011;10471;42.736;23.346;2023-04-15T05:48:49;20.90;;;13.37;;
20623;SDS011;10471;42.736;23.346;2023-04-15T05:51:14;25.27;;;15.80;;
20623;SDS011;10471;42.736;23.346;2023-04-15T05:53:40;21.50;;;14.23;;
20623;SDS011;10471;42.736;23.346;2023-04-15T05:56:06;17.27;;;11.10;;
20623;SDS011;10471;42.736;23.346;2023-04-15T05:58:31;21.60;;;11.07;;
20623;SDS011;10471;42.736;23.346;2023-04-15T06:00:57;16.80;;;10.37;;
20623;SDS011;10471;42.736;23.346;2023-04-15T06:03:22;16.33;;;9.97;;
20623;SDS011;10471;42.736;23.346;2023-04-15T06:05:48;13.63;;;9.03;;
20623;SDS011;10471;42.736;23.346;2023-04-15T06:08:13;14.80;;;8.37;;
20623;SDS011;10471;42.736;23.346;2023-04-15T06:10:39;15.60;;;8.67;;
20623;SDS011;10471;42.736;23.346;2023-04-15T06:13:04;10.53;;;7.50;;
20623;SDS011;10471;42.736;23.346;2023-04-15T06:15:30;10.37;;;6.60;;
20623;SDS011;10471;42.736;23.346;2023-04-15T06:17:56;7.10;;;5.03;;
20623;SDS011;10471;42.736;23.346;2023-04-15T06:20:21;9.60;;;6.10;;
20623;SDS011;10471;42.736;23.346;2023-04-15T06:22:47;8.47;;;4.90;;
20623;SDS011;10471;42.736;23.346;2023-04-15T06:25:13;7.90;;;5.00;;
20623;SDS011;10471;42.736;23.346;2023-04-15T06:27:39;6.80;;;4.07;;
20623;SDS011;10471;42.736;23.346;2023-04-15T06:30:05;6.90;;;4.80;;
20623;SDS011;10471;42.736;23.346;2023-04-15T06:32:31;7.47;;;5.00;;
20623;SDS011;10471;42.736;23.346;2023-04-15T06:34:56;7.20;;;4.57;;
20623;SDS011;10471;42.736;23.346;2023-04-15T06:37:22;6.10;;;4.57;;
20623;SDS011;10471;42.736;23.346;2023-04-15T06:39:47;6.47;;;4.50;;
20623;SDS011;10471;42.736;23.346;2023-04-15T06:42:13;9.70;;;4.40;;
20623;SDS011;10471;42.736;23.346;2023-04-15T06:44:38;10.77;;;5.43;;
20623;SDS011;10471;42.736;23.346;2023-04-15T06:47:04;9.47;;;5.30;;
20623;SDS011;10471;42.736;23.346;2023-04-15T06:49:29;9.23;;;5.40;;
20623;SDS011;10471;42.736;23.346;2023-04-15T06:51:55;12.20;;;5.73;;
20623;SDS011;10471;42.736;23.346;2023-04-15T06:54:21;7.70;;;4.50;;
20623;SDS011;10471;42.736;23.346;2023-04-15T06:56:46;6.57;;;4.50;;
20623;SDS011;10471;42.736;23.346;2023-04-15T06:59:12;8.07;;;4.77;;
20623;SDS011;10471;42.736;23.346;2023-04-15T07:01:39;8.83;;;5.00;;
20623;SDS011;10471;42.736;23.346;2023-04-15T07:04:05;9.13;;;5.07;;
20623;SDS011;10471;42.736;23.346;2023-04-15T07:06:30;7.83;;;5.23;;
20623;SDS011;10471;42.736;23.346;2023-04-15T07:08:56;13.37;;;6.03;;
20623;SDS011;10471;42.736;23.346;2023-04-15T07:11:22;10.83;;;5.60;;
20623;SDS011;10471;42.736;23.346;2023-04-15T07:13:47;7.27;;;5.17;;
20623;SDS011;10471;42.736;23.346;2023-04-15T07:16:13;9.70;;;5.73;;
20623;SDS011;10471;42.736;23.346;2023-04-15T07:18:38;13.57;;;5.53;;
20623;SDS011;10471;42.736;23.346;2023-04-15T07:21:04;10.77;;;5.90;;
20623;SDS011;10471;42.736;23.346;2023-04-15T07:23:29;10.27;;;4.60;;
20623;SDS011;10471;42.736;23.346;2023-04-15T07:25:55;8.77;;;5.10;;
20623;SDS011;10471;42.736;23.346;2023-04-15T07:28:21;9.60;;;5.97;;
20623;SDS011;10471;42.736;23.346;2023-04-15T07:30:47;8.50;;;5.53;;
20623;SDS011;10471;42.736;23.346;2023-04-15T07:33:13;6.97;;;4.90;;
20623;SDS011;10471;42.736;23.346;2023-04-15T07:35:38;9.13;;;5.07;;
20623;SDS011;10471;42.736;23.346;2023-04-15T07:38:03;8.37;;;5.47;;
20623;SDS011;10471;42.736;23.346;2023-04-15T07:40:29;11.83;;;7.77;;
20623;SDS011;10471;42.736;23.346;2023-04-15T07:42:57;13.37;;;6.87;;
20623;SDS011;10471;42.736;23.346;2023-04-15T07:45:22;11.73;;;6.87;;
20623;SDS011;10471;42.736;23.346;2023-04-15T07:47:48;8.53;;;6.03;;
20623;SDS011;10471;42.736;23.346;2023-04-15T07:50:15;11.00;;;7.90;;
20623;SDS011;10471;42.736;23.346;2023-04-15T07:52:41;7.03;;;5.53;;
20623;SDS011;10471;42.736;23.346;2023-04-15T07:55:08;10.03;;;5.37;;
20623;SDS011;10471;42.736;23.346;2023-04-15T07:57:34;7.83;;;5.10;;
20623;SDS011;10471;42.736;23.346;2023-04-15T08:00:00;8.97;;;5.30;;
20623;SDS011;10471;42.736;23.346;2023-04-15T08:02:28;8.70;;;4.97;;
20623;SDS011;10471;42.736;23.346;2023-04-15T08:04:53;10.93;;;5.10;;
20623;SDS011;10471;42.736;23.346;2023-04-15T08:07:19;9.23;;;4.83;;
20623;SDS011;10471;42.736;23.346;2023-04-15T08:09:45;7.77;;;4.43;;
20623;SDS011;10471;42.736;23.346;2023-04-15T08:12:10;8.03;;;4.50;;
20623;SDS011;10471;42.736;23.346;2023-04-15T08:14:37;5.97;;;4.13;;
20623;SDS011;10471;42.736;23.346;2023-04-15T08:17:03;15.20;;;4.77;;
20623;SDS011;10471;42.736;23.346;2023-04-15T08:19:29;6.27;;;3.80;;
20623;SDS011;10471;42.736;23.346;2023-04-15T08:21:55;10.33;;;4.23;;
20623;SDS011;10471;42.736;23.346;2023-04-15T08:24:21;9.13;;;3.80;;
20623;SDS011;10471;42.736;23.346;2023-04-15T08:26:46;6.10;;;3.83;;
20623;SDS011;10471;42.736;23.346;2023-04-15T08:29:12;5.33;;;3.40;;
20623;SDS011;10471;42.736;23.346;2023-04-15T08:31:37;11.13;;;4.33;;
20623;SDS011;10471;42.736;23.346;2023-04-15T08:34:03;6.23;;;3.37;;
20623;SDS011;10471;42.736;23.346;2023-04-15T08:36:28;7.17;;;3.67;;
20623;SDS011;10471;42.736;23.346;2023-04-15T08:38:54;8.60;;;4.37;;
20623;SDS011;10471;42.736;23.346;2023-04-15T08:41:20;7.17;;;3.70;;
20623;SDS011;10471;42.736;23.346;2023-04-15T08:43:52;7.27;;;4.10;;
20623;SDS011;10471;42.736;23.346;2023-04-15T08:46:29;11.40;;;4.70;;
20623;SDS011;10471;42.736;23.346;2023-04-15T08:48:56;6.50;;;3.57;;
20623;SDS011;10471;42.736;23.346;2023-04-15T08:51:22;9.23;;;3.97;;
20623;SDS011;10471;42.736;23.346;2023-04-15T08:53:49;7.60;;;3.70;;
20623;SDS011;10471;42.736;23.346;2023-04-15T08:56:15;8.00;;;3.17;;
20623;SDS011;10471;42.736;23.346;2023-04-15T08:58:42;7.13;;;3.00;;
20623;SDS011;10471;42.736;23.346;2023-04-15T09:01:09;5.40;;;2.90;;
20623;SDS011;10471;42.736;23.346;2023-04-15T09:03:36;5.03;;;2.47;;
20623;SDS011;10471;42.736;23.346;2023-04-15T09:06:03;6.23;;;2.70;;
20623;SDS011;10471;42.736;23.346;2023-04-15T09:08:30;5.13;;;2.57;;
20623;SDS011;10471;42.736;23.346;2023-04-15T09:10:55;4.90;;;2.50;;
20623;SDS011;10471;42.736;23.346;2023-04-15T09:13:21;6.33;;;2.83;;
20623;SDS011;10471;42.736;23.346;2023-04-15T09:15:46;4.43;;;2.30;;
20623;SDS011;10471;42.736;23.346;2023-04-15T09:18:13;4.13;;;2.50;;
20623;SDS011;10471;42.736;23.346;2023-04-15T09:20:52;4.90;;;2.03;;
20623;SDS011;10471;42.736;23.346;2023-04-15T09:23:18;5.00;;;1.93;;
20623;SDS011;10471;42.736;23.346;2023-04-15T09:25:43;4.60;;;1.87;;
20623;SDS011;10471;42.736;23.346;2023-04-15T09:28:09;3.57;;;1.60;;
20623;SDS011;10471;42.736;23.346;2023-04-15T09:30:35;2.07;;;1.40;;
20623;SDS011;10471;42.736;23.346;2023-04-15T09:33:01;4.20;;;1.40;;
20623;SDS011;10471;42.736;23.346;2023-04-15T09:35:31;4.93;;;1.77;;
20623;SDS011;10471;42.736;23.346;2023-04-15T09:38:07;4.67;;;1.90;;
20623;SDS011;10471;42.736;23.346;2023-04-15T09:40:40;5.30;;;2.07;;
20623;SDS011;10471;42.736;23.346;2023-04-15T09:43:06;3.57;;;2.00;;
20623;SDS011;10471;42.736;23.346;2023-04-15T09:45:33;4.50;;;2.03;;
20623;SDS011;10471;42.736;23.346;2023-04-15T09:48:15;3.27;;;1.90;;
20623;SDS011;10471;42.736;23.346;2023-04-15T09:51:00;4.97;;;1.83;;
20623;SDS011;10471;42.736;23.346;2023-04-15T09:53:26;4.67;;;1.90;;
20623;SDS011;10471;42.736;23.346;2023-04-15T09:55:53;4.97;;;2.00;;
20623;SDS011;10471;42.736;23.346;2023-04-15T09:58:23;5.67;;;1.80;;
20623;SDS011;10471;42.736;23.346;2023-04-15T10:00:50;4.43;;;1.63;;
20623;SDS011;10471;42.736;23.346;2023-04-15T10:03:18;4.23;;;1.77;;
20623;SDS011;10471;42.736;23.346;2023-04-15T10:05:44;5.40;;;1.80;;
20623;SDS011;10471;42.736;23.346;2023-04-15T10:08:11;4.40;;;1.90;;
20623;SDS011;10471;42.736;23.346;2023-04-15T10:10:37;7.57;;;2.10;;
20623;SDS011;10471;42.736;23.346;2023-04-15T10:13:03;3.53;;;1.70;;
20623;SDS011;10471;42.736;23.346;2023-04-15T10:15:30;2.37;;;1.50;;
20623;SDS011;10471;42.736;23.346;2023-04-15T10:17:57;2.13;;;1.37;;
20623;SDS011;10471;42.736;23.346;2023-04-15T10:20:25;3.20;;;1.60;;
20623;SDS011;10471;42.736;23.346;2023-04-15T10:22:52;3.17;;;1.70;;
20623;SDS011;10471;42.736;23.346;2023-04-15T10:25:18;4.20;;;1.33;;
20623;SDS011;10471;42.736;23.346;2023-04-15T10:27:43;3.80;;;1.50;;
20623;SDS011;10471;42.736;23.346;2023-04-15T10:30:09;2.10;;;1.40;;
20623;SDS011;10471;42.736;23.346;2023-04-15T10:32:38;3.97;;;1.40;;
20623;SDS011;10471;42.736;23.346;2023-04-15T10:35:05;4.07;;;1.50;;
20623;SDS011;10471;42.736;23.346;2023-04-15T10:37:37;2.27;;;1.57;;
20623;SDS011;10471;42.736;23.346;2023-04-15T10:42:55;5.20;;;1.50;;
20623;SDS011;10471;42.736;23.346;2023-04-15T10:45:21;2.60;;;1.60;;
20623;SDS011;10471;42.736;23.346;2023-04-15T10:47:54;2.17;;;1.20;;
20623;SDS011;10471;42.736;23.346;2023-04-15T10:50:21;2.23;;;1.30;;
20623;SDS011;10471;42.736;23.346;2023-04-15T10:52:48;5.07;;;1.50;;
20623;SDS011;10471;42.736;23.346;2023-04-15T10:55:20;3.50;;;1.50;;
20623;SDS011;10471;42.736;23.346;2023-04-15T10:57:54;4.70;;;1.47;;
20623;SDS011;10471;42.736;23.346;2023-04-15T11:00:29;2.47;;;1.40;;
20623;SDS011;10471;42.736;23.346;2023-04-15T11:03:06;2.97;;;1.50;;
20623;SDS011;10471;42.736;23.346;2023-04-15T11:08:07;2.83;;;1.30;;
20623;SDS011;10471;42.736;23.346;2023-04-15T11:15:42;4.73;;;1.30;;
20623;SDS011;10471;42.736;23.346;2023-04-15T11:18:18;3.43;;;1.20;;
20623;SDS011;10471;42.736;23.346;2023-04-15T11:23:19;3.43;;;1.40;;
20623;SDS011;10471;42.736;23.346;2023-04-15T11:25:53;3.27;;;1.20;;
20623;SDS011;10471;42.736;23.346;2023-04-15T11:28:19;3.77;;;1.10;;
20623;SDS011;10471;42.736;23.346;2023-04-15T11:30:45;3.17;;;1.27;;
20623;SDS011;10471;42.736;23.346;2023-04-15T11:33:10;4.67;;;1.27;;
20623;SDS011;10471;42.736;23.346;2023-04-15T11:35:36;3.20;;;1.40;;
20623;SDS011;10471;42.736;23.346;2023-04-15T11:38:07;4.40;;;1.50;;
20623;SDS011;10471;42.736;23.346;2023-04-15T11:40:34;3.20;;;1.27;;
20623;SDS011;10471;42.736;23.346;2023-04-15T11:45:31;3.20;;;1.33;;
20623;SDS011;10471;42.736;23.346;2023-04-15T11:48:09;3.03;;;1.30;;
20623;SDS011;10471;42.736;23.346;2023-04-15T11:50:37;4.37;;;1.60;;
20623;SDS011;10471;42.736;23.346;2023-04-15T11:53:07;3.93;;;1.27;;
20623;SDS011;10471;42.736;23.346;2023-04-15T11:55:44;3.47;;;1.60;;
20623;SDS011;10471;42.736;23.346;2023-04-15T11:58:18;6.30;;;2.40;;
20623;SDS011;10471;42.736;23.346;2023-04-15T12:03:23;4.83;;;2.20;;
20623;SDS011;10471;42.736;23.346;2023-04-15T12:08:50;2.23;;;1.40;;
20623;SDS011;10471;42.736;23.346;2023-04-15T12:11:38;2.53;;;1.30;;
20623;SDS011;10471;42.736;23.346;2023-04-15T12:16:32;4.13;;;1.60;;
20623;SDS011;10471;42.736;23.346;2023-04-15T12:18:59;2.93;;;1.50;;
20623;SDS011;10471;42.736;23.346;2023-04-15T12:21:38;3.93;;;1.83;;
20623;SDS011;10471;42.736;23.346;2023-04-15T12:24:05;4.43;;;1.27;;
20623;SDS011;10471;42.736;23.346;2023-04-15T12:26:53;4.10;;;1.33;;
20623;SDS011;10471;42.736;23.346;2023-04-15T12:29:26;3.40;;;2.10;;
20623;SDS011;10471;42.736;23.346;2023-04-15T12:31:56;2.77;;;1.23;;
20623;SDS011;10471;42.736;23.346;2023-04-15T12:34:32;5.67;;;1.70;;
20623;SDS011;10471;42.736;23.346;2023-04-15T12:36:59;2.53;;;1.13;;
20623;SDS011;10471;42.736;23.346;2023-04-15T12:39:26;3.10;;;1.43;;
20623;SDS011;10471;42.736;23.346;2023-04-15T12:41:54;6.53;;;1.97;;
20623;SDS011;10471;42.736;23.346;2023-04-15T12:44:21;2.57;;;1.20;;
20623;SDS011;10471;42.736;23.346;2023-04-15T12:46:48;5.30;;;1.90;;
20623;SDS011;10471;42.736;23.346;2023-04-15T12:49:14;5.30;;;1.20;;
20623;SDS011;10471;42.736;23.346;2023-04-15T12:51:40;4.30;;;1.20;;
20623;SDS011;10471;42.736;23.346;2023-04-15T12:54:06;2.87;;;1.30;;
20623;SDS011;10471;42.736;23.346;2023-04-15T12:56:31;3.23;;;1.60;;
20623;SDS011;10471;42.736;23.346;2023-04-15T12:58:56;2.87;;;1.10;;
20623;SDS011;10471;42.736;23.346;2023-04-15T13:01:22;4.33;;;1.00;;
20623;SDS011;10471;42.736;23.346;2023-04-15T13:03:47;3.60;;;1.20;;
20623;SDS011;10471;42.736;23.346;2023-04-15T13:06:14;3.83;;;1.17;;
20623;SDS011;10471;42.736;23.346;2023-04-15T13:08:40;2.87;;;1.10;;
20623;SDS011;10471;42.736;23.346;2023-04-15T13:11:06;2.47;;;0.90;;
20623;SDS011;10471;42.736;23.346;2023-04-15T13:13:31;5.07;;;1.30;;
20623;SDS011;10471;42.736;23.346;2023-04-15T13:15:57;1.53;;;1.03;;
20623;SDS011;10471;42.736;23.346;2023-04-15T13:18:22;2.87;;;1.20;;
20623;SDS011;10471;42.736;23.346;2023-04-15T13:20:48;1.50;;;1.00;;
20623;SDS011;10471;42.736;23.346;2023-04-15T13:23:14;2.87;;;1.00;;
20623;SDS011;10471;42.736;23.346;2023-04-15T13:25:40;5.93;;;1.30;;
20623;SDS011;10471;42.736;23.346;2023-04-15T13:28:06;4.90;;;1.40;;
20623;SDS011;10471;42.736;23.346;2023-04-15T13:30:31;4.57;;;1.50;;
20623;SDS011;10471;42.736;23.346;2023-04-15T13:32:57;3.60;;;1.30;;
20623;SDS011;10471;42.736;23.346;2023-04-15T13:35:22;3.57;;;1.00;;
20623;SDS011;10471;42.736;23.346;2023-04-15T13:37:47;3.63;;;1.30;;
20623;SDS011;10471;42.736;23.346;2023-04-15T13:40:13;1.97;;;0.90;;
20623;SDS011;10471;42.736;23.346;2023-04-15T13:42:38;1.97;;;0.87;;
20623;SDS011;10471;42.736;23.346;2023-04-15T13:45:05;3.30;;;1.73;;
20623;SDS011;10471;42.736;23.346;2023-04-15T13:47:31;1.57;;;1.00;;
20623;SDS011;10471;42.736;23.346;2023-04-15T13:49:56;4.43;;;1.20;;
20623;SDS011;10471;42.736;23.346;2023-04-15T13:52:22;10.70;;;7.37;;
20623;SDS011;10471;42.736;23.346;2023-04-15T13:54:47;5.27;;;3.03;;
20623;SDS011;10471;42.736;23.346;2023-04-15T13:57:13;2.83;;;1.53;;
20623;SDS011;10471;42.736;23.346;2023-04-15T13:59:38;9.00;;;3.33;;
20623;SDS011;10471;42.736;23.346;2023-04-15T14:02:04;6.03;;;2.77;;
20623;SDS011;10471;42.736;23.346;2023-04-15T14:04:30;2.83;;;1.00;;
20623;SDS011;10471;42.736;23.346;2023-04-15T14:06:56;2.77;;;1.43;;
20623;SDS011;10471;42.736;23.346;2023-04-15T14:09:22;7.47;;;2.40;;
20623;SDS011;10471;42.736;23.346;2023-04-15T14:11:48;3.27;;;0.90;;
20623;SDS011;10471;42.736;23.346;2023-04-15T14:14:14;4.13;;;1.57;;
20623;SDS011;10471;42.736;23.346;2023-04-15T14:16:39;3.53;;;1.50;;
20623;SDS011;10471;42.736;23.346;2023-04-15T14:19:05;1.80;;;1.00;;
20623;SDS011;10471;42.736;23.346;2023-04-15T14:21:30;2.33;;;0.97;;
20623;SDS011;10471;42.736;23.346;2023-04-15T14:23:56;2.23;;;1.10;;
20623;SDS011;10471;42.736;23.346;2023-04-15T14:26:22;1.63;;;0.93;;
20623;SDS011;10471;42.736;23.346;2023-04-15T14:28:47;2.87;;;0.80;;
20623;SDS011;10471;42.736;23.346;2023-04-15T14:31:13;1.50;;;0.80;;
20623;SDS011;10471;42.736;23.346;2023-04-15T14:33:39;2.10;;;0.77;;
20623;SDS011;10471;42.736;23.346;2023-04-15T14:36:05;3.90;;;1.10;;
20623;SDS011;10471;42.736;23.346;2023-04-15T14:38:33;1.97;;;0.83;;
20623;SDS011;10471;42.736;23.346;2023-04-15T14:41:02;1.07;;;0.70;;
20623;SDS011;10471;42.736;23.346;2023-04-15T14:43:28;3.03;;;0.93;;
20623;SDS011;10471;42.736;23.346;2023-04-15T14:45:54;3.17;;;1.03;;